Time;durP1;ratioP1;P1;durP2;ratioP2;P2;SDS_P1;SDS_P2;PMS_P1;PMS_P2;Temp;Humidity;BMP_temperature;BMP_pressure;BME280_temperature;BME280_humidity;BME280_pressure;Samples;Min_cycle;Max_cycle;Signal;HPM_P1;HPM_P2
2022/01/21 00:00:43;;;;;;;32.65;20.23;;;5.20;99.90;;;;;;5073360;28;20032;-51
2022/01/21 00:03:09;;;;;;;28.73;17.67;;;5.10;99.90;;;;;;5073508;28;20032;-51
2022/01/21 00:05:35;;;;;;;19.85;13.93;;;;;;;;;;5073361;28;20461;-52
2022/01/21 00:08:01;;;;;;;13.35;9.07;;;4.90;99.90;;;;;;5073512;28;20035;-52
2022/01/21 00:10:27;;;;;;;14.95;9.43;;;4.60;99.90;;;;;;5073323;28;20021;-51
2022/01/21 00:12:54;;;;;;;11.50;8.48;;;;;;;;;;5055013;28;20492;-52
2022/01/21 00:15:20;;;;;;;9.65;7.28;;;4.50;99.90;;;;;;5073227;28;20119;-51
2022/01/21 00:17:46;;;;;;;9.68;5.82;;;4.50;99.90;;;;;;5073099;28;20433;-51
2022/01/21 00:31:09;;;;;;;8.38;6.20;;;5.50;99.90;;;;;;5073539;28;20113;-51
2022/01/21 00:33:35;;;;;;;8.73;5.97;;;5.50;99.90;;;;;;5021809;28;20067;-51
2022/01/21 00:36:01;;;;;;;10.55;6.43;;;5.60;99.90;;;;;;5072851;28;20473;-51
2022/01/21 00:38:29;;;;;;;9.27;6.10;;;5.60;99.90;;;;;;5073779;28;20021;-51
2022/01/21 00:40:58;;;;;;;8.35;6.28;;;5.60;99.90;;;;;;5073112;28;20448;-51
2022/01/21 00:43:32;;;;;;;10.77;5.55;;;5.50;99.90;;;;;;5072953;28;20476;-51
2022/01/21 00:46:00;;;;;;;8.07;6.03;;;5.60;99.90;;;;;;5072999;28;20036;-51
2022/01/21 00:48:26;;;;;;;8.07;5.80;;;5.50;99.90;;;;;;5072792;28;20049;-51
2022/01/21 00:50:52;;;;;;;8.05;5.65;;;5.50;99.90;;;;;;5072773;28;20112;-51
2022/01/21 00:53:18;;;;;;;9.80;6.38;;;5.30;99.90;;;;;;5072584;28;20107;-51
2022/01/21 00:55:44;;;;;;;9.13;5.95;;;5.30;99.90;;;;;;5021642;28;20488;-51
2022/01/21 00:58:10;;;;;;;11.95;6.35;;;5.20;99.90;;;;;;5021586;28;20060;-51
2022/01/21 01:00:36;;;;;;;9.48;6.07;;;5.10;99.90;;;;;;5072912;28;20070;-51
2022/01/21 01:03:03;;;;;;;10.52;5.80;;;5.10;99.90;;;;;;5072930;28;20024;-50
2022/01/21 01:05:30;;;;;;;9.25;5.05;;;5.10;99.90;;;;;;5072760;28;20476;-51
2022/01/21 01:07:58;;;;;;;8.65;5.65;;;5.10;99.90;;;;;;5072527;28;20040;-51
2022/01/21 01:10:39;;;;;;;8.55;5.43;;;;;;;;;;5072818;28;20033;-51
2022/01/21 01:21:20;;;;;;;10.80;5.35;;;5.20;99.90;;;;;;5072933;28;20537;-51
2022/01/21 01:29:17;;;;;;;7.97;5.10;;;5.10;99.90;;;;;;5076502;28;20043;-51
2022/01/21 01:31:42;;;;;;;15.65;11.95;;;4.70;99.90;;;;;;5075997;28;20031;-51
2022/01/21 01:34:08;;;;;;;10.82;8.15;;;4.70;99.90;;;;;;5040897;28;20040;-51
2022/01/21 01:36:34;;;;;;;9.07;6.20;;;4.60;99.90;;;;;;5040758;28;20082;-51
2022/01/21 01:41:51;;;;;;;9.00;5.75;;;4.60;99.90;;;;;;5075848;28;20362;-51
2022/01/21 01:49:47;;;;;;;14.60;11.25;;;4.60;99.90;;;;;;5040582;28;20056;-51
2022/01/21 01:52:17;;;;;;;15.05;11.68;;;4.70;99.90;;;;;;5075658;28;20024;-52
2022/01/21 01:54:50;;;;;;;15.68;10.10;;;4.60;99.90;;;;;;5075567;28;20036;-51
2022/01/21 01:57:16;;;;;;;8.90;6.53;;;4.70;99.90;;;;;;5075673;28;20126;-52
2022/01/21 01:59:42;;;;;;;9.18;6.18;;;4.60;99.90;;;;;;5075555;28;20036;-51
2022/01/21 02:02:12;;;;;;;8.88;6.30;;;4.50;99.90;;;;;;5075372;28;20033;-51
2022/01/21 02:04:38;;;;;;;9.55;6.40;;;4.40;99.90;;;;;;5075615;28;20055;-51
2022/01/21 02:07:05;;;;;;;9.27;5.50;;;4.30;99.90;;;;;;5075482;28;20033;-51
2022/01/21 02:09:31;;;;;;;9.75;5.28;;;4.40;99.90;;;;;;5075361;28;20138;-52
2022/01/21 02:11:57;;;;;;;8.07;5.15;;;4.30;99.90;;;;;;5075483;28;20116;-51
2022/01/21 02:14:30;;;;;;;8.55;5.57;;;4.30;99.90;;;;;;5075617;28;20116;-51
2022/01/21 02:22:10;;;;;;;10.15;5.25;;;4.20;99.90;;;;;;5075594;28;20131;-51
2022/01/21 02:24:48;;;;;;;6.88;5.35;;;4.20;99.90;;;;;;5074972;28;20062;-51
2022/01/21 02:27:14;;;;;;;7.50;4.85;;;4.30;99.90;;;;;;5074858;28;20082;-51
2022/01/21 02:30:02;;;;;;;7.20;4.75;;;4.30;99.90;;;;;;5075100;28;20020;-51
2022/01/21 02:32:28;;;;;;;6.75;4.25;;;4.40;99.90;;;;;;5074883;28;20036;-50
2022/01/21 02:34:54;;;;;;;8.70;4.95;;;4.30;99.90;;;;;;5074847;28;20032;-51
2022/01/21 02:37:21;;;;;;;7.35;4.85;;;4.30;99.90;;;;;;5074671;28;20028;-51
2022/01/21 02:39:47;;;;;;;9.05;4.50;;;4.30;99.90;;;;;;5074831;28;20097;-51
2022/01/21 02:42:14;;;;;;;7.50;4.97;;;4.40;99.90;;;;;;5074654;28;20067;-50
2022/01/21 02:44:40;;;;;;;8.73;4.85;;;4.40;99.90;;;;;;5074605;28;20411;-51
2022/01/21 02:47:07;;;;;;;9.90;5.65;;;4.40;99.90;;;;;;5006125;28;20037;-52
2022/01/21 02:49:33;;;;;;;7.65;4.50;;;4.40;99.90;;;;;;5074591;28;20548;-51
2022/01/21 02:52:01;;;;;;;7.30;4.45;;;4.40;99.90;;;;;;5074520;28;20107;-50
2022/01/21 02:54:30;;;;;;;7.72;4.43;;;4.40;99.90;;;;;;5039496;28;20044;-51
2022/01/21 02:57:00;;;;;;;6.75;4.28;;;4.40;99.90;;;;;;5074505;28;20031;-51
2022/01/21 02:59:26;;;;;;;7.43;4.07;;;4.50;99.90;;;;;;5074212;28;20025;-52
2022/01/21 03:01:52;;;;;;;6.82;4.15;;;4.50;99.90;;;;;;5074292;28;20036;-51
2022/01/21 03:04:29;;;;;;;6.32;4.22;;;4.50;99.90;;;;;;5074238;28;20067;-52
2022/01/21 03:06:55;;;;;;;6.28;3.92;;;4.40;99.90;;;;;;5074143;28;20384;-52
2022/01/21 03:09:20;;;;;;;7.47;4.40;;;4.40;99.90;;;;;;5022546;28;20045;-52
2022/01/21 03:11:47;;;;;;;7.13;4.45;;;4.50;99.90;;;;;;5074264;28;20033;-51
2022/01/21 03:14:12;;;;;;;7.47;4.03;;;4.50;99.90;;;;;;5074178;28;20029;-52
2022/01/21 03:16:38;;;;;;;7.72;4.38;;;4.50;99.90;;;;;;5074153;28;20028;-51
2022/01/21 03:19:04;;;;;;;7.85;4.53;;;4.50;99.90;;;;;;5074241;28;20035;-50
2022/01/21 03:21:30;;;;;;;8.35;5.55;;;4.50;99.90;;;;;;5073945;28;20036;-52
2022/01/21 03:23:56;;;;;;;6.90;5.05;;;4.50;99.90;;;;;;5073852;28;20033;-52
2022/01/21 03:26:27;;;;;;;9.40;5.85;;;4.40;99.90;;;;;;5073821;28;20032;-52
2022/01/21 03:28:55;;;;;;;10.50;6.40;;;4.40;99.90;;;;;;5074090;28;20021;-51
2022/01/21 03:31:21;;;;;;;9.48;6.22;;;4.50;99.90;;;;;;5070720;28;20087;-51
2022/01/21 03:33:48;;;;;;;12.73;4.85;;;4.50;99.90;;;;;;5038853;28;20049;-51
2022/01/21 03:36:14;;;;;;;9.65;5.13;;;4.50;99.90;;;;;;5074346;28;20476;-50
2022/01/21 03:38:41;;;;;;;8.30;5.20;;;4.50;99.90;;;;;;5074292;28;20029;-51
2022/01/21 03:41:07;;;;;;;11.07;6.50;;;4.50;99.90;;;;;;5074140;28;20025;-51
2022/01/21 03:43:33;;;;;;;9.63;5.97;;;4.40;99.90;;;;;;5038860;28;20382;-52
2022/01/21 03:46:00;;;;;;;10.57;6.40;;;4.40;99.90;;;;;;5073768;28;20036;-51
2022/01/21 03:48:26;;;;;;;8.40;4.50;;;4.40;99.90;;;;;;5073297;28;20049;-51
2022/01/21 03:50:52;;;;;;;7.20;4.63;;;4.30;99.90;;;;;;5073067;28;20419;-52
2022/01/21 03:53:18;;;;;;;6.43;4.63;;;4.30;99.90;;;;;;5073637;28;20123;-52
2022/01/21 03:55:44;;;;;;;12.77;9.05;;;4.40;99.90;;;;;;5073512;28;20063;-51
2022/01/21 03:58:11;;;;;;;6.63;4.35;;;4.40;99.90;;;;;;5073437;28;20059;-51
2022/01/21 04:00:44;;;;;;;7.45;4.10;;;4.40;99.90;;;;;;5073438;28;20040;-50
2022/01/21 04:03:10;;;;;;;5.63;3.97;;;4.40;99.90;;;;;;5073667;28;20440;-51
2022/01/21 04:05:36;;;;;;;6.85;4.10;;;4.50;99.90;;;;;;5073392;28;20101;-50
2022/01/21 04:08:07;;;;;;;5.65;3.72;;;4.50;99.90;;;;;;5021711;28;20048;-52
2022/01/21 04:10:35;;;;;;;6.78;3.40;;;4.40;99.90;;;;;;5038105;28;20040;-51
2022/01/21 04:13:07;;;;;;;8.82;4.88;;;4.40;99.90;;;;;;5073326;28;20396;-51
2022/01/21 04:15:33;;;;;;;5.28;3.45;;;4.40;99.90;;;;;;5073115;28;20434;-51
2022/01/21 04:17:59;;;;;;;4.28;3.20;;;4.50;99.90;;;;;;5073216;28;20024;-52
2022/01/21 04:20:25;;;;;;;8.40;3.53;;;4.60;99.90;;;;;;5073383;28;20037;-51
2022/01/21 04:22:51;;;;;;;6.93;3.40;;;4.50;99.90;;;;;;5037960;28;20132;-50
2022/01/21 04:25:16;;;;;;;10.35;6.03;;;4.60;99.90;;;;;;5073038;28;20071;-50
2022/01/21 04:27:42;;;;;;;5.80;2.67;;;4.60;99.90;;;;;;5072923;28;20477;-52
2022/01/21 04:30:09;;;;;;;5.32;3.38;;;4.70;99.90;;;;;;5073017;28;20510;-52
2022/01/21 04:32:35;;;;;;;5.82;3.13;;;4.70;99.90;;;;;;5011024;28;20425;-51
2022/01/21 04:35:00;;;;;;;5.43;2.92;;;4.80;99.90;;;;;;5011176;28;20045;-51
2022/01/21 04:37:26;;;;;;;6.20;3.10;;;4.90;99.90;;;;;;5011067;28;20053;-52
2022/01/21 04:47:39;;;;;;;4.80;3.40;;;5.00;99.90;;;;;;5010865;28;20084;-52
2022/01/21 04:50:10;;;;;;;5.03;3.17;;;5.00;99.90;;;;;;5011188;28;20109;-51
2022/01/21 04:52:37;;;;;;;5.90;3.17;;;5.00;99.90;;;;;;4948553;28;20052;-52
2022/01/21 04:55:03;;;;;;;5.28;3.13;;;5.00;99.90;;;;;;5011089;28;20037;-52
2022/01/21 04:57:29;;;;;;;6.78;2.97;;;5.00;99.90;;;;;;5011033;28;20057;-51
2022/01/21 04:59:55;;;;;;;5.53;2.22;;;5.00;99.90;;;;;;5011008;28;20033;-51
2022/01/21 05:02:23;;;;;;;5.57;3.28;;;5.00;99.90;;;;;;5013261;28;20044;-52
2022/01/21 05:04:48;;;;;;;8.25;4.43;;;4.90;99.90;;;;;;5076579;28;20036;-51
2022/01/21 05:07:19;;;;;;;5.78;3.35;;;4.80;99.90;;;;;;5021951;28;20053;-53
2022/01/21 05:09:45;;;;;;;5.43;2.92;;;4.90;99.90;;;;;;4982671;28;20041;-51
2022/01/21 05:12:17;;;;;;;5.85;2.90;;;5.10;99.90;;;;;;5013337;28;20067;-52
2022/01/21 05:15:09;;;;;;;8.70;3.53;;;5.10;99.90;;;;;;5014378;28;20038;-51
2022/01/21 05:17:43;;;;;;;7.15;3.03;;;5.10;99.90;;;;;;5012430;28;20210;-52
2022/01/21 05:20:10;;;;;;;6.20;2.90;;;5.10;99.90;;;;;;5014068;28;20409;-52
2022/01/21 05:22:36;;;;;;;4.78;2.95;;;5.00;99.90;;;;;;4996659;28;20536;-52
2022/01/21 05:25:03;;;;;;;4.95;3.05;;;5.00;99.90;;;;;;4947053;28;20085;-51
2022/01/21 05:27:28;;;;;;;5.50;3.05;;;4.90;99.90;;;;;;5005045;28;20157;-51
2022/01/21 05:29:54;;;;;;;5.80;3.20;;;4.90;99.90;;;;;;5013427;28;20549;-51
2022/01/21 05:32:20;;;;;;;4.60;2.75;;;5.00;99.90;;;;;;4984913;28;20133;-51
2022/01/21 05:34:46;;;;;;;6.90;3.33;;;5.10;99.90;;;;;;5014182;28;20061;-52
2022/01/21 05:37:12;;;;;;;6.43;3.00;;;5.20;99.90;;;;;;5019100;28;20072;-51
2022/01/21 05:39:38;;;;;;;8.13;3.30;;;5.30;99.90;;;;;;5037940;28;20604;-51
2022/01/21 05:42:05;;;;;;;10.05;5.55;;;5.30;99.90;;;;;;5073046;28;20024;-52
2022/01/21 05:46:59;;;;;;;12.48;7.60;;;5.20;99.90;;;;;;5065201;28;20393;-52
2022/01/21 05:49:26;;;;;;;7.18;5.07;;;4.80;99.90;;;;;;5039817;28;20044;-52
2022/01/21 05:52:00;;;;;;;6.63;3.10;;;4.70;99.90;;;;;;5075363;28;20036;-51
2022/01/21 05:54:26;;;;;;;8.43;3.25;;;4.70;99.90;;;;;;5042518;28;20051;-51
2022/01/21 05:56:52;;;;;;;13.60;2.90;;;4.90;99.90;;;;;;5075752;28;20024;-51
2022/01/21 05:59:17;;;;;;;5.03;2.38;;;4.90;99.90;;;;;;5073963;28;20032;-51
2022/01/21 06:01:43;;;;;;;8.15;2.47;;;4.90;99.90;;;;;;4989941;28;20075;-51
2022/01/21 06:04:10;;;;;;;6.25;2.80;;;4.90;99.90;;;;;;5021019;28;20072;-51
2022/01/21 06:06:36;;;;;;;9.52;4.63;;;4.90;99.90;;;;;;5075786;28;20123;-51
2022/01/21 06:09:04;;;;;;;8.18;4.10;;;4.90;99.90;;;;;;5074809;28;20465;-51
2022/01/21 06:11:30;;;;;;;6.35;3.50;;;5.00;99.90;;;;;;5075227;28;20064;-51
2022/01/21 06:13:55;;;;;;;16.77;9.00;;;5.00;99.90;;;;;;5006831;28;20072;-51
2022/01/21 06:16:21;;;;;;;27.52;16.85;;;4.70;99.90;;;;;;5075325;28;20035;-51
2022/01/21 06:18:47;;;;;;;16.17;9.45;;;4.40;99.90;;;;;;5074262;28;20036;-51
2022/01/21 06:21:13;;;;;;;12.63;5.00;;;4.60;99.90;;;;;;5075241;28;20029;-51
2022/01/21 06:23:39;;;;;;;6.32;4.43;;;4.70;99.90;;;;;;5075298;28;20034;-51
2022/01/21 06:26:05;;;;;;;7.53;3.47;;;4.60;99.90;;;;;;5039995;28;20036;-51
2022/01/21 06:28:31;;;;;;;5.57;3.20;;;4.50;99.90;;;;;;5039882;28;20052;-51
2022/01/21 06:30:57;;;;;;;6.63;3.03;;;4.60;99.90;;;;;;5006854;28;20126;-50
2022/01/21 06:33:23;;;;;;;5.85;3.97;;;4.50;99.90;;;;;;5026100;28;20045;-50
2022/01/21 06:35:52;;;;;;;11.45;7.25;;;4.60;99.90;;;;;;5072008;28;20155;-50
2022/01/21 06:38:20;;;;;;;6.60;4.18;;;4.60;99.90;;;;;;5074711;28;20372;-50
2022/01/21 06:40:47;;;;;;;9.82;6.43;;;4.60;99.90;;;;;;5039763;28;20094;-51
2022/01/21 06:43:14;;;;;;;25.42;16.02;;;4.50;99.90;;;;;;5075013;28;20392;-50
2022/01/21 06:45:40;;;;;;;6.68;4.25;;;4.60;99.90;;;;;;5074335;28;20024;-50
2022/01/21 06:48:06;;;;;;;6.18;3.70;;;4.50;99.90;;;;;;5062818;28;20080;-51
2022/01/21 06:50:34;;;;;;;13.30;6.03;;;4.40;99.90;;;;;;5060260;28;20078;-51
2022/01/21 06:53:00;;;;;;;35.25;20.23;;;4.60;99.90;;;;;;5060952;28;20024;-50
2022/01/21 06:55:26;;;;;;;21.80;15.40;;;4.60;99.90;;;;;;5033369;28;20044;-51
2022/01/21 06:57:53;;;;;;;37.22;19.40;;;4.70;99.90;;;;;;5074677;28;20043;-50
2022/01/21 07:00:19;;;;;;;31.15;21.23;;;4.70;99.90;;;;;;5074482;28;20044;-50
2022/01/21 07:02:46;;;;;;;29.85;24.98;;;4.60;99.90;;;;;;5039602;28;20040;-51
2022/01/21 07:05:13;;;;;;;18.88;10.70;;;4.70;99.90;;;;;;5022852;28;20036;-50
2022/01/21 07:07:38;;;;;;;8.52;5.40;;;4.60;99.90;;;;;;5006387;28;20052;-50
2022/01/21 07:10:06;;;;;;;10.95;6.30;;;4.40;99.90;;;;;;5070094;28;20040;-50
2022/01/21 07:12:33;;;;;;;25.27;14.35;;;4.50;99.90;;;;;;5039394;28;20439;-51
2022/01/21 07:14:59;;;;;;;6.07;3.55;;;4.40;99.90;;;;;;5074499;28;20116;-50
2022/01/21 07:17:25;;;;;;;9.00;7.70;;;4.10;99.90;;;;;;5055517;28;20120;-51
2022/01/21 07:19:51;;;;;;;9.52;7.80;;;4.10;99.90;;;;;;5054067;28;20440;-51
2022/01/21 07:22:17;;;;;;;52.00;33.90;;;3.90;99.90;;;;;;5054037;28;20029;-51
2022/01/21 07:24:42;;;;;;;8.68;5.07;;;3.80;99.90;;;;;;5069572;28;20032;-51
2022/01/21 07:27:08;;;;;;;94.88;66.18;;;3.80;99.90;;;;;;5073793;28;20385;-51
2022/01/21 07:29:34;;;;;;;17.42;10.68;;;3.80;99.90;;;;;;5073942;28;20028;-51
2022/01/21 07:32:00;;;;;;;52.58;27.50;;;3.70;99.90;;;;;;5070889;28;20033;-50
2022/01/21 07:34:27;;;;;;;17.60;9.48;;;3.70;99.90;;;;;;5074024;28;20028;-50
2022/01/21 07:36:54;;;;;;;9.18;5.05;;;3.70;99.90;;;;;;5073773;28;20023;-50
2022/01/21 07:39:20;;;;;;;9.10;6.32;;;3.60;99.90;;;;;;5073917;28;20040;-50
2022/01/21 07:41:46;;;;;;;10.55;5.95;;;3.50;99.90;;;;;;5067449;28;20029;-50
2022/01/21 07:44:12;;;;;;;11.80;6.55;;;3.70;99.90;;;;;;5062963;28;20070;-51
2022/01/21 07:46:39;;;;;;;9.43;5.63;;;3.70;99.90;;;;;;5063116;28;20044;-51
2022/01/21 07:49:07;;;;;;;7.03;4.75;;;3.70;99.90;;;;;;5028860;28;20072;-51
2022/01/21 07:51:33;;;;;;;10.07;6.18;;;3.90;99.90;;;;;;5053467;28;20025;-51
2022/01/21 07:53:59;;;;;;;8.70;4.60;;;3.90;99.90;;;;;;5053511;28;20035;-50
2022/01/21 07:56:25;;;;;;;8.65;5.65;;;3.90;99.90;;;;;;5018624;28;21647;-50
2022/01/21 07:58:51;;;;;;;11.07;6.40;;;3.90;99.90;;;;;;5053422;28;20075;-50
2022/01/21 08:01:17;;;;;;;19.95;8.80;;;3.90;99.90;;;;;;5053359;28;20029;-50
2022/01/21 08:03:43;;;;;;;9.60;5.43;;;3.90;99.90;;;;;;5002209;28;20439;-50
2022/01/21 08:06:09;;;;;;;9.85;5.78;;;3.80;99.90;;;;;;5053443;28;20032;-51
2022/01/21 08:08:35;;;;;;;11.68;6.20;;;3.80;99.90;;;;;;5051435;28;20136;-50
2022/01/21 08:11:00;;;;;;;10.07;6.30;;;3.80;99.90;;;;;;5018596;28;20033;-50
2022/01/21 08:13:27;;;;;;;18.88;10.13;;;3.80;99.90;;;;;;5017865;28;20037;-50
2022/01/21 08:15:55;;;;;;;12.10;9.07;;;3.80;99.90;;;;;;5053326;28;20040;-51
2022/01/21 08:18:21;;;;;;;13.80;8.20;;;3.80;99.90;;;;;;5052845;28;20033;-51
2022/01/21 08:20:47;;;;;;;11.80;5.20;;;3.80;99.90;;;;;;5053240;28;20021;-51
2022/01/21 08:23:13;;;;;;;9.73;6.07;;;3.80;99.90;;;;;;5053052;28;20473;-51
2022/01/21 08:25:40;;;;;;;8.98;5.90;;;3.90;99.90;;;;;;5053037;28;20024;-50
2022/01/21 08:28:06;;;;;;;9.57;5.60;;;4.00;99.90;;;;;;5053048;28;20037;-51
2022/01/21 08:30:32;;;;;;;11.60;5.93;;;4.00;99.90;;;;;;5052112;28;20065;-51
2022/01/21 08:32:59;;;;;;;10.32;6.00;;;4.00;99.90;;;;;;5052609;28;20067;-52
2022/01/21 08:35:24;;;;;;;5.47;3.05;;;3.90;99.90;;;;;;5038850;28;20514;-51
2022/01/21 08:37:52;;;;;;;6.45;4.55;;;3.90;99.90;;;;;;5041411;28;20116;-51
2022/01/21 08:40:20;;;;;;;7.38;4.10;;;3.90;99.90;;;;;;5059380;28;20037;-51
2022/01/21 08:42:45;;;;;;;3.47;2.33;;;3.90;99.90;;;;;;5071668;28;20036;-51
2022/01/21 08:45:11;;;;;;;6.90;3.72;;;3.80;99.90;;;;;;5022171;28;20037;-50
2022/01/21 08:47:40;;;;;;;6.28;3.72;;;4.10;99.90;;;;;;4989035;28;20052;-50
2022/01/21 08:50:09;;;;;;;6.40;3.72;;;4.10;99.90;;;;;;5056912;28;20033;-51
2022/01/21 08:52:40;;;;;;;9.10;3.97;;;4.10;99.90;;;;;;5056578;28;20116;-51
2022/01/21 08:55:12;;;;;;;9.82;4.68;;;4.10;99.90;;;;;;5057722;28;20048;-51
2022/01/21 08:57:41;;;;;;;7.68;3.97;;;4.00;99.90;;;;;;5074528;28;20055;-50
2022/01/21 09:00:14;;;;;;;7.38;4.72;;;4.00;99.90;;;;;;5076618;28;20032;-51
2022/01/21 09:02:40;;;;;;;7.28;4.28;;;4.00;99.90;;;;;;5010805;28;20036;-51
2022/01/21 09:05:07;;;;;;;8.48;4.35;;;3.90;99.90;;;;;;5076921;28;20532;-51
2022/01/21 09:07:33;;;;;;;8.40;4.80;;;4.00;99.90;;;;;;5076475;28;20388;-51
2022/01/21 09:09:58;;;;;;;8.27;4.07;;;3.90;99.90;;;;;;5076696;28;20025;-53
2022/01/21 09:12:24;;;;;;;7.90;4.30;;;3.90;99.90;;;;;;5073205;28;20044;-50
2022/01/21 09:14:50;;;;;;;7.97;4.20;;;3.90;99.90;;;;;;5008809;28;20147;-50
2022/01/21 09:17:17;;;;;;;45.22;17.58;;;3.80;99.90;;;;;;5041422;28;20476;-50
2022/01/21 09:19:43;;;;;;;11.40;5.88;;;3.60;99.90;;;;;;5076722;28;20028;-50
2022/01/21 09:22:09;;;;;;;53.88;29.30;;;3.60;99.90;;;;;;5059068;28;20025;-49
2022/01/21 09:24:35;;;;;;;27.88;15.77;;;3.70;99.90;;;;;;5078395;28;20033;-49
2022/01/21 09:27:02;;;;;;;26.23;14.93;;;3.60;99.90;;;;;;5043926;28;20115;-49
2022/01/21 09:29:29;;;;;;;27.05;15.60;;;3.40;99.90;;;;;;5044368;28;20040;-50
2022/01/21 09:31:54;;;;;;;11.52;5.70;;;3.60;99.90;;;;;;5073428;28;20025;-49
2022/01/21 09:34:23;;;;;;;6.35;4.00;;;3.30;99.90;;;;;;5065422;28;20071;-49
2022/01/21 09:36:48;;;;;;;6.03;4.20;;;3.30;99.90;;;;;;5068929;28;20045;-49
2022/01/21 09:39:14;;;;;;;8.45;3.75;;;3.50;99.90;;;;;;5057430;28;20072;-49
2022/01/21 09:41:44;;;;;;;3.08;2.25;;;3.60;99.90;;;;;;5025660;28;20036;-49
2022/01/21 09:44:14;;;;;;;4.55;2.90;;;3.40;99.90;;;;;;5075416;28;20075;-49
2022/01/21 09:46:45;;;;;;;4.63;2.38;;;3.50;99.90;;;;;;5075390;28;20037;-49
2022/01/21 09:49:26;;;;;;;14.82;8.35;;;4.00;99.90;;;;;;5075775;28;20079;-49
2022/01/21 09:52:00;;;;;;;19.13;9.57;;;3.70;99.90;;;;;;5073833;28;20060;-49
2022/01/21 09:54:29;;;;;;;22.77;11.32;;;3.70;99.90;;;;;;5063983;28;20546;-49
2022/01/21 09:56:57;;;;;;;4.65;2.70;;;3.90;99.90;;;;;;5065272;28;20112;-49
2022/01/21 09:59:29;;;;;;;5.93;3.42;;;4.20;99.90;;;;;;5053106;28;20048;-49
2022/01/21 10:02:07;;;;;;;5.32;3.65;;;4.20;99.90;;;;;;5014739;28;20066;-49
2022/01/21 10:04:41;;;;;;;7.68;2.78;;;3.80;99.90;;;;;;5039542;28;20455;-49
2022/01/21 10:07:10;;;;;;;4.57;3.15;;;3.90;99.90;;;;;;5074764;28;20071;-47
2022/01/21 10:09:38;;;;;;;7.78;4.55;;;3.90;99.90;;;;;;5075144;28;20024;-47
2022/01/21 10:12:04;;;;;;;5.53;2.53;;;3.90;99.90;;;;;;5074769;28;20040;-47
2022/01/21 10:14:30;;;;;;;5.82;2.97;;;3.80;99.90;;;;;;5040090;28;20459;-47
2022/01/21 10:16:58;;;;;;;5.13;2.78;;;3.90;99.90;;;;;;5065984;28;20025;-47
2022/01/21 10:19:29;;;;;;;4.05;1.88;;;3.80;99.90;;;;;;5005159;28;20292;-50
2022/01/21 10:22:23;;;;;;;6.22;3.00;;;3.90;99.90;;;;;;4971186;28;20519;-50
2022/01/21 10:25:01;;;;;;;4.32;3.00;;;4.10;99.90;;;;;;4913346;29;20393;-49
2022/01/21 10:27:32;;;;;;;6.35;4.22;;;4.20;99.90;;;;;;4912481;29;20532;-48
2022/01/21 10:29:58;;;;;;;3.22;1.98;;;4.60;99.90;;;;;;4918124;29;20051;-50
2022/01/21 10:32:41;;;;;;;4.22;2.38;;;4.50;99.90;;;;;;4916533;29;20036;-48
2022/01/21 10:35:26;;;;;;;6.40;3.08;;;4.40;99.90;;;;;;4913575;29;20167;-50
2022/01/21 10:37:57;;;;;;;6.60;5.10;;;4.30;99.90;;;;;;4909746;29;20846;-49
2022/01/21 10:40:32;;;;;;;7.82;7.28;;;4.30;99.90;;;;;;4897792;29;20509;-49
2022/01/21 10:43:11;;;;;;;33.17;28.60;;;5.30;99.90;;;;;;4916621;29;20032;-49
2022/01/21 10:45:57;;;;;;;200.75;182.52;;;5.50;99.90;;;;;;4916123;29;20036;-49
2022/01/21 10:48:31;;;;;;;2.45;1.52;;;5.30;99.90;;;;;;4916293;29;20535;-49
2022/01/21 10:51:25;;;;;;;3.05;1.67;;;5.50;99.90;;;;;;4915618;29;20038;-50
2022/01/21 10:53:52;;;;;;;17.38;4.72;;;5.60;99.90;;;;;;4949462;29;20071;-49
2022/01/21 10:56:19;;;;;;;12.82;11.82;;;6.40;99.90;;;;;;4965634;28;20034;-47
2022/01/21 10:58:51;;;;;;;7.95;2.25;;;6.70;99.90;;;;;;4959914;28;20085;-49
2022/01/21 11:01:21;;;;;;;2.13;1.20;;;5.90;99.90;;;;;;5016481;28;20455;-47
2022/01/21 11:04:11;;;;;;;5.03;2.75;;;5.40;99.90;;;;;;5054409;28;20033;-48
2022/01/21 11:06:50;;;;;;;4.10;1.67;;;5.60;99.90;;;;;;5054247;28;20037;-50
2022/01/21 11:09:23;;;;;;;4.32;1.77;;;5.50;99.90;;;;;;5019612;28;20037;-47
2022/01/21 11:12:08;;;;;;;3.30;1.30;;;5.20;99.90;;;;;;5002197;28;20067;-48
2022/01/21 11:14:34;;;;;;;6.30;5.72;;;4.50;99.90;;;;;;5031542;28;20047;-50
2022/01/21 11:17:11;;;;;;;6.03;1.13;;;5.00;99.90;;;;;;5073975;28;20036;-49
2022/01/21 11:19:36;;;;;;;7.80;7.20;;;4.80;99.90;;;;;;5074188;28;20029;-51
2022/01/21 11:22:04;;;;;;;17.17;11.63;;;5.70;99.90;;;;;;5069922;28;20029;-49
2022/01/21 11:24:31;;;;;;;184.32;168.52;;;6.70;99.90;;;;;;5054032;28;20032;-50
2022/01/21 11:27:08;;;;;;;8.63;7.93;;;7.00;99.90;;;;;;5019105;28;20029;-50
2022/01/21 11:29:34;;;;;;;6.28;5.80;;;6.70;99.90;;;;;;5054072;28;20043;-49
2022/01/21 11:32:00;;;;;;;2.53;1.48;;;6.50;99.90;;;;;;5054257;28;20484;-49
2022/01/21 11:34:26;;;;;;;2.65;1.30;;;5.50;99.90;;;;;;5035938;28;20075;-49
2022/01/21 11:36:52;;;;;;;5.05;1.40;;;5.00;99.90;;;;;;5053962;28;20021;-49
2022/01/21 11:39:21;;;;;;;5.50;1.77;;;4.50;99.90;;;;;;5053849;28;20115;-48
2022/01/21 11:41:50;;;;;;;3.00;1.48;;;4.00;99.90;;;;;;5053795;28;20033;-50
2022/01/21 11:44:20;;;;;;;3.38;1.80;;;4.20;99.90;;;;;;5053805;28;20037;-50
2022/01/21 11:47:01;;;;;;;2.53;1.58;;;4.30;99.90;;;;;;5053411;28;20029;-49
2022/01/21 11:49:29;;;;;;;4.32;2.05;;;4.10;99.90;;;;;;5053884;28;20404;-50
2022/01/21 11:52:24;;;;;;;2.83;1.10;;;4.30;99.90;;;;;;5050645;28;20067;-50
2022/01/21 11:54:50;;;;;;;3.75;3.40;;;3.70;99.90;;;;;;4992402;28;20030;-49
2022/01/21 11:57:28;;;;;;;2.33;1.52;;;3.80;99.90;;;;;;4992174;28;20026;-49
2022/01/21 12:00:07;;;;;;;3.92;0.77;;;;;;;;;;4994428;28;20038;-49
2022/01/21 12:02:35;;;;;;;1.85;0.82;;;3.40;99.90;;;;;;5002319;28;20044;-49
2022/01/21 12:05:09;;;;;;;2.03;1.00;;;3.30;99.90;;;;;;4961197;28;20038;-50
2022/01/21 12:07:36;;;;;;;5.20;4.35;;;3.30;99.90;;;;;;5000166;28;20034;-49
2022/01/21 12:10:05;;;;;;;16.70;9.07;;;4.00;99.90;;;;;;4998990;28;20060;-49
2022/01/21 12:13:06;;;;;;;8.75;4.47;;;5.50;99.90;;;;;;4992013;28;20070;-49
2022/01/21 12:21:02;;;;;;;8.77;2.65;;;;;;;;;;4991916;28;20089;-49
2022/01/21 12:23:29;;;;;;;4.30;2.13;;;7.20;99.90;;;;;;4991960;28;20027;-50
2022/01/21 12:26:16;;;;;;;3.45;1.02;;;7.00;95.00;;;;;;4991883;28;20042;-50
2022/01/21 12:28:46;;;;;;;2.53;1.45;;;6.00;95.30;;;;;;4991790;28;20042;-49
2022/01/21 12:31:15;;;;;;;4.32;1.98;;;5.40;95.50;;;;;;4988556;28;20041;-49
2022/01/21 12:36:17;;;;;;;3.95;1.70;;;4.30;96.40;;;;;;5053011;28;20025;-50
2022/01/21 12:41:18;;;;;;;17.58;8.40;;;4.30;96.20;;;;;;5019199;28;20063;-50
2022/01/21 12:43:50;;;;;;;19.08;8.85;;;;;;;;;;5053115;28;20025;-49
2022/01/21 12:46:23;;;;;;;19.65;10.00;;;3.40;95.60;;;;;;5052791;28;20036;-50
2022/01/21 12:48:50;;;;;;;6.85;2.53;;;3.50;96.30;;;;;;5052825;28;20048;-50
2022/01/21 12:51:32;;;;;;;9.15;2.38;;;3.50;96.20;;;;;;5052681;28;20060;-50
2022/01/21 12:56:54;;;;;;;7.05;2.25;;;4.00;97.60;;;;;;5053188;28;20040;-50
2022/01/21 12:59:23;;;;;;;5.47;2.40;;;4.00;96.40;;;;;;5018008;28;20473;-49
2022/01/21 13:01:50;;;;;;;3.60;2.00;;;4.60;96.80;;;;;;5052957;28;20109;-51
2022/01/21 13:04:24;;;;;;;6.15;3.35;;;5.10;96.60;;;;;;5017806;28;20045;-49
2022/01/21 13:07:01;;;;;;;3.88;2.25;;;4.90;93.40;;;;;;5056850;28;20103;-50
2022/01/21 13:10:09;;;;;;;5.63;3.38;;;5.10;94.30;;;;;;5054493;28;20037;-51
2022/01/21 13:13:34;;;;;;;5.55;2.45;;;5.20;93.10;;;;;;5011085;28;20034;-49
2022/01/21 13:15:55;;;;;;;7.15;3.50;;;5.20;92.90;;;;;;5010353;28;20113;-50
2022/01/21 13:18:25;;;;;;;3.60;1.92;;;4.30;92.40;;;;;;5011244;28;20037;-50
2022/01/21 13:21:13;;;;;;;4.35;1.90;;;3.90;92.40;;;;;;5011130;28;20030;-49
2022/01/21 13:23:52;;;;;;;7.13;3.58;;;3.80;93.60;;;;;;5013136;28;20080;-49
2022/01/21 13:26:25;;;;;;;6.63;1.88;;;4.30;93.90;;;;;;5014499;28;20045;-49
2022/01/21 13:28:54;;;;;;;;;;;4.40;93.20;;;;;;5014826;28;20038;-50
2022/01/21 13:31:20;;;;;;;3.28;2.13;;;4.50;92.40;;;;;;5014357;28;19992;-50
2022/01/21 13:33:46;;;;;;;2.42;0.88;;;4.50;92.00;;;;;;4998443;28;20134;-50
2022/01/21 13:36:12;;;;;;;2.58;1.17;;;4.80;92.50;;;;;;4965593;28;20041;-48
2022/01/21 13:38:40;;;;;;;1.02;0.65;;;4.10;91.10;;;;;;5014291;28;20571;-50
2022/01/21 13:41:10;;;;;;;2.90;0.90;;;4.20;91.40;;;;;;5014262;28;20092;-50
2022/01/21 13:43:37;;;;;;;1.02;0.77;;;4.10;92.30;;;;;;5014328;28;20045;-48
2022/01/21 13:46:04;;;;;;;2.13;0.90;;;4.00;92.10;;;;;;5014097;28;20163;-48
2022/01/21 13:48:32;;;;;;;2.88;1.15;;;3.70;92.30;;;;;;5015630;28;20051;-50
2022/01/21 13:51:01;;;;;;;2.50;1.40;;;3.60;92.60;;;;;;5065784;28;20045;-51
2022/01/21 13:53:27;;;;;;;4.63;1.65;;;3.90;93.60;;;;;;5064222;28;20044;-50
2022/01/21 13:55:55;;;;;;;7.13;2.38;;;3.90;92.20;;;;;;5040999;28;20422;-49
2022/01/21 13:58:31;;;;;;;5.53;2.30;;;4.10;92.80;;;;;;5054766;28;20416;-49
2022/01/21 14:01:03;;;;;;;9.50;3.30;;;4.60;92.80;;;;;;5074613;28;20024;-49
2022/01/21 14:03:30;;;;;;;3.10;1.80;;;5.00;93.50;;;;;;5074630;28;20024;-49
2022/01/21 14:06:17;;;;;;;5.93;1.65;;;4.90;92.00;;;;;;5074675;28;20041;-49